sensor_id;sensor_type;location;lat;lon;timestamp;P1;durP1;ratioP1;P2;durP2;ratioP2
30299;SDS011;17110;52.602;12.998;2023-04-24T00:02:18;8.88;;;8.18;;
30299;SDS011;17110;52.602;12.998;2023-04-24T00:04:44;8.50;;;7.80;;
30299;SDS011;17110;52.602;12.998;2023-04-24T00:07:10;8.20;;;7.60;;
30299;SDS011;17110;52.602;12.998;2023-04-24T00:09:37;9.45;;;8.63;;
30299;SDS011;17110;52.602;12.998;2023-04-24T00:12:03;8.63;;;7.93;;
30299;SDS011;17110;52.602;12.998;2023-04-24T00:14:30;8.38;;;7.68;;
30299;SDS011;17110;52.602;12.998;2023-04-24T00:16:56;9.70;;;8.90;;
30299;SDS011;17110;52.602;12.998;2023-04-24T00:19:22;9.07;;;8.27;;
30299;SDS011;17110;52.602;12.998;2023-04-24T00:21:48;10.27;;;9.27;;
30299;SDS011;17110;52.602;12.998;2023-04-24T00:24:16;8.38;;;7.60;;
30299;SDS011;17110;52.602;12.998;2023-04-24T00:26:43;8.90;;;8.10;;
30299;SDS011;17110;52.602;12.998;2023-04-24T00:29:11;8.85;;;8.13;;
30299;SDS011;17110;52.602;12.998;2023-04-24T00:31:37;9.30;;;8.60;;
30299;SDS011;17110;52.602;12.998;2023-04-24T00:34:03;9.20;;;8.50;;
30299;SDS011;17110;52.602;12.998;2023-04-24T00:36:29;9.38;;;8.55;;
30299;SDS011;17110;52.602;12.998;2023-04-24T00:38:56;9.48;;;8.52;;
30299;SDS011;17110;52.602;12.998;2023-04-24T00:41:22;8.32;;;7.72;;
30299;SDS011;17110;52.602;12.998;2023-04-24T00:43:51;9.10;;;8.30;;
30299;SDS011;17110;52.602;12.998;2023-04-24T00:46:18;9.10;;;8.32;;
30299;SDS011;17110;52.602;12.998;2023-04-24T00:48:44;8.93;;;8.13;;
30299;SDS011;17110;52.602;12.998;2023-04-24T00:51:13;9.15;;;8.35;;
30299;SDS011;17110;52.602;12.998;2023-04-24T00:53:39;9.02;;;8.30;;
30299;SDS011;17110;52.602;12.998;2023-04-24T00:56:05;8.45;;;7.75;;
30299;SDS011;17110;52.602;12.998;2023-04-24T00:58:31;9.02;;;8.27;;
30299;SDS011;17110;52.602;12.998;2023-04-24T01:00:57;8.52;;;7.82;;
30299;SDS011;17110;52.602;12.998;2023-04-24T01:03:24;7.60;;;7.00;;
30299;SDS011;17110;52.602;12.998;2023-04-24T01:05:55;7.75;;;7.15;;
30299;SDS011;17110;52.602;12.998;2023-04-24T01:08:22;7.60;;;6.90;;
30299;SDS011;17110;52.602;12.998;2023-04-24T01:10:50;8.23;;;7.45;;
30299;SDS011;17110;52.602;12.998;2023-04-24T01:13:17;7.80;;;7.20;;
30299;SDS011;17110;52.602;12.998;2023-04-24T01:15:44;7.93;;;7.32;;
30299;SDS011;17110;52.602;12.998;2023-04-24T01:18:10;7.90;;;7.20;;
30299;SDS011;17110;52.602;12.998;2023-04-24T01:20:37;8.27;;;7.50;;
30299;SDS011;17110;52.602;12.998;2023-04-24T01:23:07;8.07;;;7.38;;
30299;SDS011;17110;52.602;12.998;2023-04-24T01:25:33;8.38;;;7.45;;
30299;SDS011;17110;52.602;12.998;2023-04-24T01:28:00;8.68;;;7.88;;
30299;SDS011;17110;52.602;12.998;2023-04-24T01:30:25;7.88;;;7.18;;
30299;SDS011;17110;52.602;12.998;2023-04-24T01:32:52;8.10;;;7.47;;
30299;SDS011;17110;52.602;12.998;2023-04-24T01:35:18;7.93;;;7.22;;
30299;SDS011;17110;52.602;12.998;2023-04-24T01:37:44;8.02;;;7.38;;
30299;SDS011;17110;52.602;12.998;2023-04-24T01:40:10;7.85;;;7.25;;
30299;SDS011;17110;52.602;12.998;2023-04-24T01:42:40;8.30;;;7.60;;
30299;SDS011;17110;52.602;12.998;2023-04-24T01:45:06;7.82;;;7.22;;
30299;SDS011;17110;52.602;12.998;2023-04-24T01:47:35;7.47;;;6.82;;
30299;SDS011;17110;52.602;12.998;2023-04-24T01:50:02;8.93;;;8.05;;
30299;SDS011;17110;52.602;12.998;2023-04-24T01:52:28;7.78;;;7.07;;
30299;SDS011;17110;52.602;12.998;2023-04-24T01:54:56;8.73;;;8.02;;
30299;SDS011;17110;52.602;12.998;2023-04-24T01:57:31;8.95;;;8.27;;
30299;SDS011;17110;52.602;12.998;2023-04-24T01:59:58;9.55;;;8.77;;
30299;SDS011;17110;52.602;12.998;2023-04-24T02:02:24;9.27;;;8.48;;
30299;SDS011;17110;52.602;12.998;2023-04-24T02:04:52;9.50;;;8.75;;
30299;SDS011;17110;52.602;12.998;2023-04-24T02:07:19;9.93;;;9.23;;
30299;SDS011;17110;52.602;12.998;2023-04-24T02:09:48;9.80;;;9.10;;
30299;SDS011;17110;52.602;12.998;2023-04-24T02:12:21;9.70;;;8.90;;
30299;SDS011;17110;52.602;12.998;2023-04-24T02:14:50;10.57;;;9.77;;
30299;SDS011;17110;52.602;12.998;2023-04-24T02:17:25;10.48;;;9.45;;
30299;SDS011;17110;52.602;12.998;2023-04-24T02:20:03;10.52;;;9.70;;
30299;SDS011;17110;52.602;12.998;2023-04-24T02:22:33;10.65;;;9.85;;
30299;SDS011;17110;52.602;12.998;2023-04-24T02:24:59;9.80;;;9.10;;
30299;SDS011;17110;52.602;12.998;2023-04-24T02:27:25;10.23;;;9.43;;
30299;SDS011;17110;52.602;12.998;2023-04-24T02:29:50;9.93;;;9.05;;
30299;SDS011;17110;52.602;12.998;2023-04-24T02:32:16;10.25;;;9.20;;
30299;SDS011;17110;52.602;12.998;2023-04-24T02:34:42;9.57;;;8.88;;
30299;SDS011;17110;52.602;12.998;2023-04-24T02:37:20;9.43;;;8.73;;
30299;SDS011;17110;52.602;12.998;2023-04-24T02:40:07;9.77;;;9.07;;
30299;SDS011;17110;52.602;12.998;2023-04-24T02:42:33;9.68;;;8.98;;
30299;SDS011;17110;52.602;12.998;2023-04-24T02:45:02;10.18;;;9.35;;
30299;SDS011;17110;52.602;12.998;2023-04-24T02:47:47;9.82;;;8.93;;
30299;SDS011;17110;52.602;12.998;2023-04-24T02:50:46;9.10;;;8.50;;
30299;SDS011;17110;52.602;12.998;2023-04-24T02:53:11;9.65;;;8.95;;
30299;SDS011;17110;52.602;12.998;2023-04-24T02:55:37;9.88;;;8.82;;
30299;SDS011;17110;52.602;12.998;2023-04-24T02:58:03;8.65;;;7.88;;
30299;SDS011;17110;52.602;12.998;2023-04-24T03:00:29;8.70;;;7.93;;
30299;SDS011;17110;52.602;12.998;2023-04-24T03:02:55;8.60;;;7.78;;
30299;SDS011;17110;52.602;12.998;2023-04-24T03:05:20;10.20;;;8.05;;
30299;SDS011;17110;52.602;12.998;2023-04-24T03:07:49;8.25;;;7.65;;
30299;SDS011;17110;52.602;12.998;2023-04-24T03:10:17;8.30;;;7.70;;
30299;SDS011;17110;52.602;12.998;2023-04-24T03:12:43;8.48;;;7.63;;
30299;SDS011;17110;52.602;12.998;2023-04-24T03:15:09;8.90;;;8.20;;
30299;SDS011;17110;52.602;12.998;2023-04-24T03:17:35;8.05;;;7.50;;
30299;SDS011;17110;52.602;12.998;2023-04-24T03:20:02;8.82;;;8.13;;
30299;SDS011;17110;52.602;12.998;2023-04-24T03:22:39;8.85;;;8.15;;
30299;SDS011;17110;52.602;12.998;2023-04-24T03:25:14;9.00;;;8.20;;
30299;SDS011;17110;52.602;12.998;2023-04-24T03:27:51;8.93;;;8.23;;
30299;SDS011;17110;52.602;12.998;2023-04-24T03:30:22;9.05;;;8.05;;
30299;SDS011;17110;52.602;12.998;2023-04-24T03:32:51;8.20;;;7.55;;
30299;SDS011;17110;52.602;12.998;2023-04-24T03:35:20;9.15;;;8.35;;
30299;SDS011;17110;52.602;12.998;2023-04-24T03:37:51;8.55;;;7.93;;
30299;SDS011;17110;52.602;12.998;2023-04-24T03:40:19;8.70;;;8.00;;
30299;SDS011;17110;52.602;12.998;2023-04-24T03:42:48;8.57;;;7.88;;
30299;SDS011;17110;52.602;12.998;2023-04-24T03:45:16;7.57;;;6.97;;
30299;SDS011;17110;52.602;12.998;2023-04-24T03:48:00;8.38;;;7.78;;
30299;SDS011;17110;52.602;12.998;2023-04-24T03:50:44;8.75;;;7.95;;
30299;SDS011;17110;52.602;12.998;2023-04-24T03:53:42;8.90;;;8.20;;
30299;SDS011;17110;52.602;12.998;2023-04-24T03:56:08;8.55;;;7.95;;
30299;SDS011;17110;52.602;12.998;2023-04-24T03:58:34;8.93;;;8.23;;
30299;SDS011;17110;52.602;12.998;2023-04-24T04:01:00;9.20;;;8.27;;
30299;SDS011;17110;52.602;12.998;2023-04-24T04:03:26;9.95;;;9.25;;
30299;SDS011;17110;52.602;12.998;2023-04-24T04:05:51;9.25;;;8.55;;
30299;SDS011;17110;52.602;12.998;2023-04-24T04:08:18;8.50;;;7.90;;
30299;SDS011;17110;52.602;12.998;2023-04-24T04:10:43;8.90;;;8.10;;
30299;SDS011;17110;52.602;12.998;2023-04-24T04:13:09;9.27;;;8.38;;
30299;SDS011;17110;52.602;12.998;2023-04-24T04:15:37;8.57;;;7.88;;
30299;SDS011;17110;52.602;12.998;2023-04-24T04:18:03;10.05;;;9.25;;
30299;SDS011;17110;52.602;12.998;2023-04-24T04:20:28;9.38;;;8.50;;
30299;SDS011;17110;52.602;12.998;2023-04-24T04:22:54;9.30;;;8.60;;
30299;SDS011;17110;52.602;12.998;2023-04-24T04:25:20;9.45;;;8.20;;
30299;SDS011;17110;52.602;12.998;2023-04-24T04:27:46;8.88;;;8.18;;
30299;SDS011;17110;52.602;12.998;2023-04-24T04:30:13;9.20;;;8.00;;
30299;SDS011;17110;52.602;12.998;2023-04-24T04:32:39;10.05;;;9.27;;
30299;SDS011;17110;52.602;12.998;2023-04-24T04:35:05;8.85;;;8.07;;
30299;SDS011;17110;52.602;12.998;2023-04-24T04:37:31;9.60;;;8.80;;
30299;SDS011;17110;52.602;12.998;2023-04-24T04:39:58;9.05;;;8.35;;
30299;SDS011;17110;52.602;12.998;2023-04-24T04:42:24;8.48;;;7.88;;
30299;SDS011;17110;52.602;12.998;2023-04-24T04:44:51;7.93;;;7.32;;
30299;SDS011;17110;52.602;12.998;2023-04-24T04:47:18;7.70;;;7.10;;
30299;SDS011;17110;52.602;12.998;2023-04-24T04:49:47;7.40;;;6.80;;
30299;SDS011;17110;52.602;12.998;2023-04-24T04:52:13;7.53;;;6.82;;
30299;SDS011;17110;52.602;12.998;2023-04-24T04:54:39;6.32;;;5.82;;
30299;SDS011;17110;52.602;12.998;2023-04-24T04:57:05;5.55;;;4.65;;
30299;SDS011;17110;52.602;12.998;2023-04-24T04:59:31;4.70;;;4.30;;
30299;SDS011;17110;52.602;12.998;2023-04-24T05:01:56;4.25;;;3.85;;
30299;SDS011;17110;52.602;12.998;2023-04-24T05:04:22;4.47;;;3.60;;
30299;SDS011;17110;52.602;12.998;2023-04-24T05:06:48;4.95;;;4.50;;
30299;SDS011;17110;52.602;12.998;2023-04-24T05:09:18;4.70;;;4.00;;
30299;SDS011;17110;52.602;12.998;2023-04-24T05:11:44;4.20;;;3.80;;
30299;SDS011;17110;52.602;12.998;2023-04-24T05:14:10;3.20;;;3.00;;
30299;SDS011;17110;52.602;12.998;2023-04-24T05:16:37;3.33;;;3.03;;
30299;SDS011;17110;52.602;12.998;2023-04-24T05:19:03;3.45;;;3.15;;
30299;SDS011;17110;52.602;12.998;2023-04-24T05:21:29;3.40;;;3.17;;
30299;SDS011;17110;52.602;12.998;2023-04-24T05:23:55;4.55;;;3.22;;
30299;SDS011;17110;52.602;12.998;2023-04-24T05:26:21;3.70;;;3.40;;
30299;SDS011;17110;52.602;12.998;2023-04-24T05:28:47;3.38;;;2.95;;
30299;SDS011;17110;52.602;12.998;2023-04-24T05:31:13;3.13;;;2.80;;
30299;SDS011;17110;52.602;12.998;2023-04-24T05:33:39;3.20;;;3.00;;
30299;SDS011;17110;52.602;12.998;2023-04-24T05:36:05;3.65;;;3.20;;
30299;SDS011;17110;52.602;12.998;2023-04-24T05:38:31;3.47;;;2.55;;
30299;SDS011;17110;52.602;12.998;2023-04-24T05:43:45;2.88;;;2.63;;
30299;SDS011;17110;52.602;12.998;2023-04-24T06:00:43;2.83;;;2.33;;
30299;SDS011;17110;52.602;12.998;2023-04-24T06:08:44;2.53;;;2.00;;
30299;SDS011;17110;52.602;12.998;2023-04-24T06:11:10;1.65;;;1.50;;
30299;SDS011;17110;52.602;12.998;2023-04-24T06:13:39;4.57;;;1.92;;
30299;SDS011;17110;52.602;12.998;2023-04-24T06:16:04;2.13;;;1.67;;
30299;SDS011;17110;52.602;12.998;2023-04-24T06:18:30;1.90;;;1.73;;
30299;SDS011;17110;52.602;12.998;2023-04-24T06:20:56;2.95;;;1.50;;
30299;SDS011;17110;52.602;12.998;2023-04-24T06:23:21;2.67;;;1.60;;
30299;SDS011;17110;52.602;12.998;2023-04-24T06:25:47;2.08;;;1.58;;
30299;SDS011;17110;52.602;12.998;2023-04-24T06:28:12;1.70;;;1.60;;
30299;SDS011;17110;52.602;12.998;2023-04-24T06:30:38;2.15;;;1.60;;
30299;SDS011;17110;52.602;12.998;2023-04-24T06:33:04;3.88;;;1.42;;
30299;SDS011;17110;52.602;12.998;2023-04-24T06:35:29;1.83;;;1.70;;
30299;SDS011;17110;52.602;12.998;2023-04-24T06:40:57;1.97;;;1.43;;
30299;SDS011;17110;52.602;12.998;2023-04-24T06:54:14;2.10;;;1.30;;
30299;SDS011;17110;52.602;12.998;2023-04-24T06:56:40;3.17;;;1.30;;
30299;SDS011;17110;52.602;12.998;2023-04-24T06:59:06;2.10;;;1.20;;
30299;SDS011;17110;52.602;12.998;2023-04-24T07:01:31;3.53;;;1.50;;
30299;SDS011;17110;52.602;12.998;2023-04-24T07:03:57;1.50;;;1.20;;
30299;SDS011;17110;52.602;12.998;2023-04-24T07:06:23;3.25;;;1.40;;
30299;SDS011;17110;52.602;12.998;2023-04-24T07:08:49;2.55;;;1.02;;
30299;SDS011;17110;52.602;12.998;2023-04-24T07:11:15;1.52;;;1.25;;
30299;SDS011;17110;52.602;12.998;2023-04-24T07:13:40;1.92;;;1.00;;
30299;SDS011;17110;52.602;12.998;2023-04-24T07:16:09;1.38;;;1.27;;
30299;SDS011;17110;52.602;12.998;2023-04-24T07:18:35;1.60;;;0.80;;
30299;SDS011;17110;52.602;12.998;2023-04-24T07:21:01;2.63;;;1.05;;
30299;SDS011;17110;52.602;12.998;2023-04-24T07:23:27;1.40;;;1.00;;
30299;SDS011;17110;52.602;12.998;2023-04-24T07:25:53;0.85;;;0.82;;
30299;SDS011;17110;52.602;12.998;2023-04-24T07:28:18;0.95;;;0.75;;
30299;SDS011;17110;52.602;12.998;2023-04-24T07:30:44;0.93;;;0.73;;
30299;SDS011;17110;52.602;12.998;2023-04-24T07:33:10;0.70;;;0.63;;
30299;SDS011;17110;52.602;12.998;2023-04-24T07:35:38;1.90;;;0.98;;
30299;SDS011;17110;52.602;12.998;2023-04-24T07:38:03;2.63;;;0.95;;
30299;SDS011;17110;52.602;12.998;2023-04-24T07:40:29;1.85;;;0.98;;
30299;SDS011;17110;52.602;12.998;2023-04-24T07:42:55;1.05;;;0.80;;
30299;SDS011;17110;52.602;12.998;2023-04-24T07:45:21;1.17;;;0.90;;
30299;SDS011;17110;52.602;12.998;2023-04-24T07:47:48;3.00;;;1.10;;
30299;SDS011;17110;52.602;12.998;2023-04-24T07:50:15;2.70;;;1.15;;
30299;SDS011;17110;52.602;12.998;2023-04-24T07:52:41;1.58;;;0.88;;
30299;SDS011;17110;52.602;12.998;2023-04-24T07:55:06;0.85;;;0.80;;
30299;SDS011;17110;52.602;12.998;2023-04-24T07:57:33;1.70;;;0.90;;
30299;SDS011;17110;52.602;12.998;2023-04-24T07:59:58;1.20;;;0.80;;
30299;SDS011;17110;52.602;12.998;2023-04-24T08:02:24;2.17;;;0.80;;
30299;SDS011;17110;52.602;12.998;2023-04-24T08:04:54;1.42;;;0.93;;
30299;SDS011;17110;52.602;12.998;2023-04-24T08:07:20;4.32;;;1.25;;
30299;SDS011;17110;52.602;12.998;2023-04-24T08:09:45;1.45;;;0.70;;
30299;SDS011;17110;52.602;12.998;2023-04-24T08:12:11;1.40;;;0.70;;
30299;SDS011;17110;52.602;12.998;2023-04-24T08:14:37;0.95;;;0.60;;
30299;SDS011;17110;52.602;12.998;2023-04-24T08:17:02;1.33;;;1.00;;
30299;SDS011;17110;52.602;12.998;2023-04-24T08:19:28;2.67;;;1.00;;
30299;SDS011;17110;52.602;12.998;2023-04-24T08:21:54;1.88;;;1.08;;
30299;SDS011;17110;52.602;12.998;2023-04-24T08:24:19;3.53;;;0.77;;
30299;SDS011;17110;52.602;12.998;2023-04-24T08:26:45;2.10;;;0.77;;
30299;SDS011;17110;52.602;12.998;2023-04-24T08:29:11;1.35;;;0.82;;
30299;SDS011;17110;52.602;12.998;2023-04-24T08:31:36;3.28;;;0.90;;
30299;SDS011;17110;52.602;12.998;2023-04-24T08:34:02;1.70;;;0.80;;
30299;SDS011;17110;52.602;12.998;2023-04-24T08:36:27;2.97;;;1.08;;
30299;SDS011;17110;52.602;12.998;2023-04-24T08:38:53;1.02;;;0.93;;
30299;SDS011;17110;52.602;12.998;2023-04-24T08:41:19;1.40;;;1.05;;
30299;SDS011;17110;52.602;12.998;2023-04-24T08:43:47;2.92;;;1.23;;
30299;SDS011;17110;52.602;12.998;2023-04-24T08:46:14;3.43;;;1.00;;
30299;SDS011;17110;52.602;12.998;2023-04-24T08:48:41;1.40;;;0.95;;
30299;SDS011;17110;52.602;12.998;2023-04-24T08:51:07;2.13;;;1.08;;
30299;SDS011;17110;52.602;12.998;2023-04-24T08:53:34;3.10;;;1.10;;
30299;SDS011;17110;52.602;12.998;2023-04-24T08:56:00;1.67;;;1.00;;
30299;SDS011;17110;52.602;12.998;2023-04-24T08:58:27;2.05;;;0.90;;
30299;SDS011;17110;52.602;12.998;2023-04-24T09:00:56;0.70;;;0.70;;
30299;SDS011;17110;52.602;12.998;2023-04-24T09:03:23;2.45;;;0.75;;
30299;SDS011;17110;52.602;12.998;2023-04-24T09:05:49;2.45;;;0.80;;
30299;SDS011;17110;52.602;12.998;2023-04-24T09:08:17;3.75;;;1.25;;
30299;SDS011;17110;52.602;12.998;2023-04-24T09:10:44;2.10;;;1.10;;
30299;SDS011;17110;52.602;12.998;2023-04-24T09:13:10;2.13;;;1.10;;
30299;SDS011;17110;52.602;12.998;2023-04-24T09:15:36;3.30;;;1.00;;
30299;SDS011;17110;52.602;12.998;2023-04-24T09:18:03;2.08;;;1.15;;
30299;SDS011;17110;52.602;12.998;2023-04-24T09:20:29;2.30;;;1.10;;
30299;SDS011;17110;52.602;12.998;2023-04-24T09:22:56;1.90;;;1.00;;
30299;SDS011;17110;52.602;12.998;2023-04-24T09:25:22;1.02;;;0.80;;
30299;SDS011;17110;52.602;12.998;2023-04-24T09:28:02;3.05;;;1.10;;
30299;SDS011;17110;52.602;12.998;2023-04-24T09:30:29;2.40;;;1.00;;
30299;SDS011;17110;52.602;12.998;2023-04-24T09:33:12;2.75;;;1.00;;
30299;SDS011;17110;52.602;12.998;2023-04-24T09:35:41;1.25;;;0.90;;
30299;SDS011;17110;52.602;12.998;2023-04-24T09:38:10;4.82;;;1.13;;
30299;SDS011;17110;52.602;12.998;2023-04-24T09:40:36;1.95;;;1.00;;
30299;SDS011;17110;52.602;12.998;2023-04-24T09:43:01;3.45;;;1.20;;
30299;SDS011;17110;52.602;12.998;2023-04-24T09:45:28;1.70;;;1.15;;
30299;SDS011;17110;52.602;12.998;2023-04-24T09:48:00;3.05;;;1.40;;
30299;SDS011;17110;52.602;12.998;2023-04-24T09:50:26;3.03;;;1.25;;
30299;SDS011;17110;52.602;12.998;2023-04-24T09:52:58;3.88;;;1.10;;
30299;SDS011;17110;52.602;12.998;2023-04-24T09:55:26;2.58;;;1.17;;
30299;SDS011;17110;52.602;12.998;2023-04-24T09:57:54;1.58;;;1.02;;
30299;SDS011;17110;52.602;12.998;2023-04-24T10:02:57;2.38;;;1.00;;
30299;SDS011;17110;52.602;12.998;2023-04-24T10:05:26;2.30;;;1.50;;
30299;SDS011;17110;52.602;12.998;2023-04-24T10:07:57;3.83;;;1.30;;
30299;SDS011;17110;52.602;12.998;2023-04-24T10:10:29;2.90;;;1.00;;
30299;SDS011;17110;52.602;12.998;2023-04-24T10:12:56;2.65;;;1.40;;
30299;SDS011;17110;52.602;12.998;2023-04-24T10:15:22;2.42;;;1.13;;
30299;SDS011;17110;52.602;12.998;2023-04-24T10:17:48;1.15;;;0.90;;
30299;SDS011;17110;52.602;12.998;2023-04-24T10:20:20;0.88;;;0.80;;
30299;SDS011;17110;52.602;12.998;2023-04-24T10:22:49;2.97;;;1.10;;
30299;SDS011;17110;52.602;12.998;2023-04-24T10:25:16;29.13;;;2.72;;
30299;SDS011;17110;52.602;12.998;2023-04-24T10:27:43;1.13;;;0.88;;
30299;SDS011;17110;52.602;12.998;2023-04-24T10:30:11;23.15;;;2.30;;
30299;SDS011;17110;52.602;12.998;2023-04-24T10:32:38;3.55;;;1.10;;
30299;SDS011;17110;52.602;12.998;2023-04-24T10:35:07;3.92;;;1.00;;
30299;SDS011;17110;52.602;12.998;2023-04-24T10:37:37;1.52;;;0.90;;
30299;SDS011;17110;52.602;12.998;2023-04-24T10:40:06;2.05;;;1.17;;
30299;SDS011;17110;52.602;12.998;2023-04-24T10:42:33;2.60;;;1.25;;
30299;SDS011;17110;52.602;12.998;2023-04-24T10:44:59;3.42;;;1.10;;
30299;SDS011;17110;52.602;12.998;2023-04-24T10:50:07;1.40;;;0.90;;
30299;SDS011;17110;52.602;12.998;2023-04-24T10:52:48;2.53;;;1.10;;
30299;SDS011;17110;52.602;12.998;2023-04-24T10:55:16;4.72;;;0.90;;
30299;SDS011;17110;52.602;12.998;2023-04-24T10:58:02;2.67;;;0.95;;
30299;SDS011;17110;52.602;12.998;2023-04-24T11:00:29;3.50;;;1.15;;
30299;SDS011;17110;52.602;12.998;2023-04-24T11:02:55;1.23;;;0.90;;
30299;SDS011;17110;52.602;12.998;2023-04-24T11:05:22;2.22;;;1.30;;
30299;SDS011;17110;52.602;12.998;2023-04-24T11:08:14;1.65;;;1.10;;
30299;SDS011;17110;52.602;12.998;2023-04-24T11:10:47;1.90;;;0.98;;
30299;SDS011;17110;52.602;12.998;2023-04-24T11:13:22;2.88;;;1.17;;
30299;SDS011;17110;52.602;12.998;2023-04-24T11:29:48;1.77;;;0.80;;
30299;SDS011;17110;52.602;12.998;2023-04-24T11:37:34;1.92;;;1.33;;
30299;SDS011;17110;52.602;12.998;2023-04-24T11:40:08;2.17;;;1.38;;
30299;SDS011;17110;52.602;12.998;2023-04-24T11:42:41;2.63;;;1.20;;
30299;SDS011;17110;52.602;12.998;2023-04-24T11:45:09;1.33;;;1.00;;
30299;SDS011;17110;52.602;12.998;2023-04-24T11:47:36;1.00;;;0.80;;
30299;SDS011;17110;52.602;12.998;2023-04-24T11:50:02;2.20;;;1.10;;
30299;SDS011;17110;52.602;12.998;2023-04-24T11:52:30;2.15;;;0.93;;
30299;SDS011;17110;52.602;12.998;2023-04-24T11:54:56;2.55;;;0.98;;
30299;SDS011;17110;52.602;12.998;2023-04-24T11:57:23;1.63;;;1.05;;
30299;SDS011;17110;52.602;12.998;2023-04-24T11:59:52;2.65;;;1.02;;
30299;SDS011;17110;52.602;12.998;2023-04-24T12:02:22;1.15;;;0.90;;
30299;SDS011;17110;52.602;12.998;2023-04-24T12:07:14;2.10;;;1.08;;
30299;SDS011;17110;52.602;12.998;2023-04-24T12:09:58;1.23;;;0.90;;
30299;SDS011;17110;52.602;12.998;2023-04-24T12:12:27;1.63;;;1.10;;
30299;SDS011;17110;52.602;12.998;2023-04-24T12:14:56;2.47;;;0.90;;
30299;SDS011;17110;52.602;12.998;2023-04-24T12:17:26;7.03;;;1.47;;
30299;SDS011;17110;52.602;12.998;2023-04-24T12:19:57;2.42;;;1.02;;
30299;SDS011;17110;52.602;12.998;2023-04-24T12:22:26;3.25;;;1.23;;
30299;SDS011;17110;52.602;12.998;2023-04-24T12:24:59;4.03;;;1.20;;
30299;SDS011;17110;52.602;12.998;2023-04-24T12:27:33;2.20;;;1.20;;
30299;SDS011;17110;52.602;12.998;2023-04-24T12:30:00;2.63;;;1.20;;
30299;SDS011;17110;52.602;12.998;2023-04-24T12:32:28;1.10;;;0.97;;
30299;SDS011;17110;52.602;12.998;2023-04-24T12:34:54;2.08;;;1.05;;
30299;SDS011;17110;52.602;12.998;2023-04-24T12:37:24;1.55;;;1.00;;
30299;SDS011;17110;52.602;12.998;2023-04-24T12:40:04;2.42;;;1.38;;
30299;SDS011;17110;52.602;12.998;2023-04-24T12:42:31;1.20;;;1.10;;
30299;SDS011;17110;52.602;12.998;2023-04-24T12:45:05;2.03;;;1.02;;
30299;SDS011;17110;52.602;12.998;2023-04-24T12:47:31;1.80;;;1.20;;
30299;SDS011;17110;52.602;12.998;2023-04-24T12:49:58;1.08;;;1.05;;
30299;SDS011;17110;52.602;12.998;2023-04-24T12:52:24;4.50;;;1.63;;
30299;SDS011;17110;52.602;12.998;2023-04-24T12:54:54;3.33;;;1.30;;
30299;SDS011;17110;52.602;12.998;2023-04-24T12:57:24;3.65;;;1.20;;
30299;SDS011;17110;52.602;12.998;2023-04-24T12:59:54;3.85;;;1.20;;
30299;SDS011;17110;52.602;12.998;2023-04-24T13:02:21;6.57;;;1.25;;
30299;SDS011;17110;52.602;12.998;2023-04-24T13:04:48;4.88;;;1.35;;
30299;SDS011;17110;52.602;12.998;2023-04-24T13:07:14;2.97;;;1.30;;
30299;SDS011;17110;52.602;12.998;2023-04-24T13:09:40;2.58;;;1.30;;
30299;SDS011;17110;52.602;12.998;2023-04-24T13:12:07;2.55;;;0.90;;
30299;SDS011;17110;52.602;12.998;2023-04-24T13:14:34;1.38;;;1.27;;
30299;SDS011;17110;52.602;12.998;2023-04-24T13:17:00;2.53;;;1.55;;
30299;SDS011;17110;52.602;12.998;2023-04-24T13:19:26;5.57;;;1.23;;
30299;SDS011;17110;52.602;12.998;2023-04-24T13:21:53;2.40;;;1.40;;
30299;SDS011;17110;52.602;12.998;2023-04-24T13:24:20;3.15;;;1.20;;
30299;SDS011;17110;52.602;12.998;2023-04-24T13:29:16;1.65;;;1.25;;
30299;SDS011;17110;52.602;12.998;2023-04-24T13:31:42;1.65;;;1.35;;
30299;SDS011;17110;52.602;12.998;2023-04-24T13:34:10;3.10;;;1.30;;
30299;SDS011;17110;52.602;12.998;2023-04-24T13:36:36;4.90;;;1.30;;
30299;SDS011;17110;52.602;12.998;2023-04-24T13:39:02;3.03;;;1.50;;
30299;SDS011;17110;52.602;12.998;2023-04-24T13:41:29;6.20;;;1.60;;
30299;SDS011;17110;52.602;12.998;2023-04-24T13:43:55;2.70;;;1.15;;
30299;SDS011;17110;52.602;12.998;2023-04-24T13:46:21;1.55;;;1.13;;
30299;SDS011;17110;52.602;12.998;2023-04-24T13:48:58;2.70;;;1.20;;
30299;SDS011;17110;52.602;12.998;2023-04-24T13:51:27;2.50;;;1.38;;
30299;SDS011;17110;52.602;12.998;2023-04-24T13:53:53;2.20;;;1.27;;
30299;SDS011;17110;52.602;12.998;2023-04-24T13:56:20;2.45;;;1.33;;
30299;SDS011;17110;52.602;12.998;2023-04-24T13:58:45;3.38;;;1.38;;
30299;SDS011;17110;52.602;12.998;2023-04-24T14:01:11;11.88;;;2.00;;
30299;SDS011;17110;52.602;12.998;2023-04-24T14:03:41;4.72;;;1.33;;
30299;SDS011;17110;52.602;12.998;2023-04-24T14:06:08;1.75;;;1.48;;
30299;SDS011;17110;52.602;12.998;2023-04-24T14:08:34;3.15;;;1.60;;
30299;SDS011;17110;52.602;12.998;2023-04-24T14:11:14;3.10;;;1.50;;
30299;SDS011;17110;52.602;12.998;2023-04-24T14:16:58;2.33;;;1.30;;
30299;SDS011;17110;52.602;12.998;2023-04-24T14:19:39;4.53;;;1.60;;
30299;SDS011;17110;52.602;12.998;2023-04-24T14:22:05;6.05;;;1.45;;
30299;SDS011;17110;52.602;12.998;2023-04-24T14:24:31;5.07;;;1.50;;
30299;SDS011;17110;52.602;12.998;2023-04-24T14:26:57;3.63;;;1.27;;
30299;SDS011;17110;52.602;12.998;2023-04-24T14:29:25;2.42;;;1.30;;
30299;SDS011;17110;52.602;12.998;2023-04-24T14:31:51;2.10;;;1.30;;
30299;SDS011;17110;52.602;12.998;2023-04-24T14:34:16;3.50;;;1.20;;
30299;SDS011;17110;52.602;12.998;2023-04-24T14:36:42;1.58;;;1.20;;
30299;SDS011;17110;52.602;12.998;2023-04-24T14:39:07;4.32;;;1.45;;
30299;SDS011;17110;52.602;12.998;2023-04-24T14:41:33;1.30;;;1.20;;
30299;SDS011;17110;52.602;12.998;2023-04-24T14:44:04;2.50;;;1.35;;
30299;SDS011;17110;52.602;12.998;2023-04-24T14:46:30;4.40;;;1.27;;
30299;SDS011;17110;52.602;12.998;2023-04-24T14:48:56;2.33;;;1.40;;
30299;SDS011;17110;52.602;12.998;2023-04-24T14:51:22;3.15;;;1.40;;
30299;SDS011;17110;52.602;12.998;2023-04-24T14:53:48;2.83;;;1.45;;
30299;SDS011;17110;52.602;12.998;2023-04-24T14:56:14;2.40;;;1.58;;
30299;SDS011;17110;52.602;12.998;2023-04-24T14:58:40;1.40;;;1.30;;
30299;SDS011;17110;52.602;12.998;2023-04-24T15:01:05;3.28;;;1.60;;
30299;SDS011;17110;52.602;12.998;2023-04-24T15:03:31;1.95;;;1.50;;
30299;SDS011;17110;52.602;12.998;2023-04-24T15:05:57;3.35;;;1.60;;
30299;SDS011;17110;52.602;12.998;2023-04-24T15:08:22;2.22;;;1.52;;
30299;SDS011;17110;52.602;12.998;2023-04-24T15:10:48;2.25;;;1.55;;
30299;SDS011;17110;52.602;12.998;2023-04-24T15:13:14;4.45;;;1.42;;
30299;SDS011;17110;52.602;12.998;2023-04-24T15:15:43;1.67;;;1.58;;
30299;SDS011;17110;52.602;12.998;2023-04-24T15:18:10;2.42;;;1.40;;
30299;SDS011;17110;52.602;12.998;2023-04-24T15:20:36;2.22;;;1.30;;
30299;SDS011;17110;52.602;12.998;2023-04-24T15:23:04;3.40;;;1.60;;
30299;SDS011;17110;52.602;12.998;2023-04-24T15:25:30;3.22;;;1.45;;
30299;SDS011;17110;52.602;12.998;2023-04-24T15:27:56;2.85;;;1.20;;
30299;SDS011;17110;52.602;12.998;2023-04-24T15:30:23;4.32;;;1.30;;
30299;SDS011;17110;52.602;12.998;2023-04-24T15:32:49;4.95;;;1.55;;
30299;SDS011;17110;52.602;12.998;2023-04-24T15:37:50;2.33;;;1.48;;
30299;SDS011;17110;52.602;12.998;2023-04-24T15:40:16;2.58;;;1.27;;
30299;SDS011;17110;52.602;12.998;2023-04-24T15:42:42;2.92;;;1.55;;
30299;SDS011;17110;52.602;12.998;2023-04-24T15:45:08;3.35;;;1.30;;
30299;SDS011;17110;52.602;12.998;2023-04-24T15:47:34;1.67;;;1.58;;
30299;SDS011;17110;52.602;12.998;2023-04-24T15:50:00;4.15;;;1.40;;